»·PEaware :: SWA5923 KSMF-KBOI

SWA5923 :: KSMF-KBOI

FLIGHT INFORMATION

Flight Status: Arrived
Operator:
Southwest Airlines
More flights by this operator :: More flights under this callsign
Pilot: Max W. (2591)
Aircraft: BOEING 737-800
(B738)
More flights by this aircraft type
Origin: KSMF Sacramento Intl
United States
Destination: KBOI Boise Air Terminal/Gowen
United States
More flights between these airports :: More routes between these airports
Route: RVRCT2 MACUS PRNCS SADYL3
File this flight plan on PilotEdge
Remarks: STUDENT PILOT BE NICE IF POSSIBLE
Altitude:
(Current/Filed)
33,000ft
Speed:
(Current/Filed)
450kts
Departed: 17-Dec-18 07:59 PM
Arrived: 17-Dec-18 09:04 PM
Distance/Time
Traveled:
380nm/1:05
Distance/Time
To Go:
Arrived

Flight Plot

Page will automatically refresh every two minutes.

Flight plan parsing failed; only flown route is shown


Map Options




Map Legend


Flown Route
Filed Route
Departure Airport
Arrival Airport
Navaid (VOR, NDB)
Fix

Horizontal Profiles

Position Reports

Time Latitude Longitude Heading Altitude Ground
Speed
17-Dec-18 19:40 38.693125 -121.584487 270 28ft 0kts
17-Dec-18 19:41 38.693125 -121.584487 270 28ft 0kts
17-Dec-18 19:42 38.693125 -121.584487 270 28ft 0kts
17-Dec-18 19:43 38.693125 -121.584487 270 28ft 0kts
17-Dec-18 19:44 38.693125 -121.584487 270 28ft 0kts
17-Dec-18 19:45 38.693125 -121.584487 270 28ft 0kts
17-Dec-18 19:46 38.693125 -121.584487 270 28ft 0kts
17-Dec-18 19:47 38.693125 -121.584487 270 28ft 0kts
17-Dec-18 19:48 38.693125 -121.584487 270 28ft 0kts
17-Dec-18 19:49 38.693126 -121.584647 269 28ft 3kts
17-Dec-18 19:50 38.693562 -121.582927 174 28ft 12kts
17-Dec-18 19:51 38.689734 -121.582987 179 28ft 12kts
17-Dec-18 19:52 38.686986 -121.583056 180 28ft 9kts
17-Dec-18 19:53 38.683925 -121.582943 156 28ft 6kts
17-Dec-18 19:54 38.683643 -121.582158 100 28ft 2kts
17-Dec-18 19:55 38.683638 -121.582070 90 28ft 0kts
17-Dec-18 19:56 38.683638 -121.582070 90 28ft 0kts
17-Dec-18 19:57 38.684218 -121.580466 4 28ft 11kts
17-Dec-18 19:58 38.713922 -121.577087 28 1847ft 178kts
17-Dec-18 19:59 38.719274 -121.500668 98 5113ft 269kts
17-Dec-18 20:00 38.704305 -121.402592 98 9530ft 298kts
17-Dec-18 20:01 38.693944 -121.288128 89 12915ft 348kts
17-Dec-18 20:02 38.685722 -121.161060 93 16559ft 374kts
17-Dec-18 20:03 38.674788 -121.025023 92 20006ft 394kts
17-Dec-18 20:04 38.664018 -120.893021 91 22826ft 413kts
17-Dec-18 20:05 38.661356 -120.744159 71 25143ft 417kts
17-Dec-18 20:06 38.709838 -120.614065 40 27908ft 396kts
17-Dec-18 20:07 38.779757 -120.508180 37 31035ft 383kts
17-Dec-18 20:08 38.850262 -120.402134 37 33070ft 393kts
17-Dec-18 20:09 38.921629 -120.294493 38 33256ft 423kts
17-Dec-18 20:10 39.000507 -120.174759 39 33238ft 450kts
17-Dec-18 20:11 39.082241 -120.049832 39 33239ft 455kts
17-Dec-18 20:12 39.159846 -119.930835 39 33272ft 456kts
17-Dec-18 20:13 39.241512 -119.805227 39 33256ft 456kts
17-Dec-18 20:14 39.322432 -119.680262 39 33240ft 456kts
17-Dec-18 20:15 39.403802 -119.554084 38 33235ft 454kts
17-Dec-18 20:16 39.484920 -119.427821 39 33239ft 457kts
17-Dec-18 20:17 39.563698 -119.304732 39 33224ft 458kts
17-Dec-18 20:18 39.645007 -119.177041 39 33216ft 456kts
17-Dec-18 20:19 39.725911 -119.049560 39 33207ft 456kts
17-Dec-18 20:20 39.806079 -118.922691 40 33206ft 451kts
17-Dec-18 20:21 39.892092 -118.811823 22 33207ft 420kts
17-Dec-18 20:22 39.997075 -118.757668 7 33205ft 403kts
17-Dec-18 20:23 40.100085 -118.719627 7 33208ft 407kts
17-Dec-18 20:24 40.210349 -118.678730 8 33218ft 419kts
17-Dec-18 20:25 40.322397 -118.636897 8 33215ft 419kts
17-Dec-18 20:27 40.434560 -118.594881 8 33212ft 418kts
17-Dec-18 20:28 40.546445 -118.552807 8 33215ft 418kts
17-Dec-18 20:29 40.650982 -118.504557 14 33211ft 427kts
17-Dec-18 20:30 40.759924 -118.442886 14 33207ft 426kts
17-Dec-18 20:31 40.868803 -118.380636 16 33199ft 429kts
17-Dec-18 20:32 40.970563 -118.310221 19 33185ft 432kts
17-Dec-18 20:33 41.078189 -118.234805 19 33190ft 443kts
17-Dec-18 20:34 41.182387 -118.161512 19 33203ft 448kts
17-Dec-18 20:35 41.292115 -118.083994 19 33203ft 448kts
17-Dec-18 20:36 41.401878 -118.006163 19 33202ft 446kts
17-Dec-18 20:37 41.511495 -117.928157 19 33203ft 448kts
17-Dec-18 20:38 41.621196 -117.849797 19 33199ft 448kts
17-Dec-18 20:39 41.730256 -117.771539 19 33161ft 441kts
17-Dec-18 20:40 41.838062 -117.693959 19 33145ft 442kts
17-Dec-18 20:41 41.946419 -117.615687 19 33147ft 443kts
17-Dec-18 20:41 42.036569 -117.550338 19 33145ft 442kts
17-Dec-18 20:43 42.157705 -117.462193 19 33157ft 442kts
17-Dec-18 20:44 42.266057 -117.383022 19 33156ft 441kts
17-Dec-18 20:45 42.367986 -117.308087 19 31024ft 432kts
17-Dec-18 20:46 42.471247 -117.231779 20 28011ft 412kts
17-Dec-18 20:47 42.574169 -117.155926 21 25680ft 442kts
17-Dec-18 20:47 42.663226 -117.089799 22 23748ft 435kts
17-Dec-18 20:49 42.783799 -116.999878 23 19837ft 418kts
17-Dec-18 20:49 42.866921 -116.937691 24 17259ft 404kts
17-Dec-18 20:51 42.978867 -116.853699 26 14021ft 380kts
17-Dec-18 20:51 43.053366 -116.792405 42 14001ft 355kts
17-Dec-18 20:52 43.106166 -116.699078 50 13190ft 319kts
17-Dec-18 20:53 43.161037 -116.605784 50 11717ft 309kts
17-Dec-18 20:54 43.233512 -116.554979 12 10341ft 294kts
17-Dec-18 20:55 43.311888 -116.535103 2 9058ft 281kts
17-Dec-18 20:56 43.389552 -116.524712 2 8366ft 277kts
17-Dec-18 20:57 43.465270 -116.515201 2 7121ft 270kts
17-Dec-18 20:58 43.539236 -116.506844 2 5906ft 264kts
17-Dec-18 20:59 43.610132 -116.485722 27 5011ft 262kts
17-Dec-18 21:00 43.624312 -116.399797 114 5022ft 232kts
17-Dec-18 21:01 43.596982 -116.321938 114 4083ft 230kts
17-Dec-18 21:02 43.574057 -116.254475 115 3031ft 147kts
17-Dec-18 21:03 43.564315 -116.224262 31 2852ft 23kts

Navigation Log

Ident Type
Flight plan parsing failed, navigation log unavailable